KIKT

Nakika

Nakika, Mississippi, USA
METAR KIKT 191115Z AUTO 00000KT 10SM CLR 29/23 A2996 RMK A01
Observed Flight Rules
Sep-19 @ 11:15 UTC (21 minutes ago) Visual Flight Rules
Visibility Clouds
10 miles
  • Clear skies
Temperatures Readings
Current 29°C / 84°F
Dewpoint 23°C / 73°F
Humidity 70%
Altimeter 29.96" Hg
Pressure 1015 hPa
Elevation 25
METAR KIKT 191115Z AUTO 00000KT 10SM CLR 29/23 A2996 RMK A01
Observed Flight Rules
Sep-19 @ 11:15 UTC
(21 minutes ago)
VFR
Clouds
  • Clear skies
Temperature Dewpoint
29°C / 84°F 23°C / 73°F
Humidity Altimeter Pressure
70% 29.96" Hg 1015 hPa